sensor_id;sensor_type;location;lat;lon;timestamp;temperature;humidity
67555;HTU21D;54385;53.516;49.456;2023-09-07T00:00:49;23.23;46.09
67555;HTU21D;54385;53.516;49.456;2023-09-07T00:03:15;23.21;46.09
67555;HTU21D;54385;53.516;49.456;2023-09-07T00:05:42;23.21;46.11
67555;HTU21D;54385;53.516;49.456;2023-09-07T00:08:08;23.20;46.11
67555;HTU21D;54385;53.516;49.456;2023-09-07T00:10:35;23.18;46.12
67555;HTU21D;54385;53.516;49.456;2023-09-07T00:13:02;23.17;46.13
67555;HTU21D;54385;53.516;49.456;2023-09-07T00:15:32;23.17;46.15
67555;HTU21D;54385;53.516;49.456;2023-09-07T00:18:01;23.16;46.26
67555;HTU21D;54385;53.516;49.456;2023-09-07T00:20:28;23.15;46.12
67555;HTU21D;54385;53.516;49.456;2023-09-07T00:22:55;23.15;46.12
67555;HTU21D;54385;53.516;49.456;2023-09-07T00:25:22;23.14;46.14
67555;HTU21D;54385;53.516;49.456;2023-09-07T00:27:48;23.14;46.15
67555;HTU21D;54385;53.516;49.456;2023-09-07T00:30:14;23.13;46.16
67555;HTU21D;54385;53.516;49.456;2023-09-07T00:32:41;23.12;46.18
67555;HTU21D;54385;53.516;49.456;2023-09-07T00:35:08;23.13;46.19
67555;HTU21D;54385;53.516;49.456;2023-09-07T00:37:35;23.12;46.18
67555;HTU21D;54385;53.516;49.456;2023-09-07T00:40:01;23.14;46.17
67555;HTU21D;54385;53.516;49.456;2023-09-07T00:42:29;23.11;46.16
67555;HTU21D;54385;53.516;49.456;2023-09-07T00:44:56;23.13;46.12
67555;HTU21D;54385;53.516;49.456;2023-09-07T00:47:22;23.14;46.09
67555;HTU21D;54385;53.516;49.456;2023-09-07T00:49:49;23.14;46.08
67555;HTU21D;54385;53.516;49.456;2023-09-07T00:52:17;23.14;46.07
67555;HTU21D;54385;53.516;49.456;2023-09-07T00:54:44;23.13;46.09
67555;HTU21D;54385;53.516;49.456;2023-09-07T00:57:11;23.13;46.09
67555;HTU21D;54385;53.516;49.456;2023-09-07T00:59:37;23.12;46.09
67555;HTU21D;54385;53.516;49.456;2023-09-07T01:02:04;23.11;46.08
67555;HTU21D;54385;53.516;49.456;2023-09-07T01:04:32;23.12;46.06
67555;HTU21D;54385;53.516;49.456;2023-09-07T01:07:16;23.12;46.09
67555;HTU21D;54385;53.516;49.456;2023-09-07T01:09:44;23.12;46.05
67555;HTU21D;54385;53.516;49.456;2023-09-07T01:12:16;23.12;46.06
67555;HTU21D;54385;53.516;49.456;2023-09-07T01:14:43;23.13;45.99
67555;HTU21D;54385;53.516;49.456;2023-09-07T01:17:10;23.16;45.96
67555;HTU21D;54385;53.516;49.456;2023-09-07T01:19:38;23.16;45.91
67555;HTU21D;54385;53.516;49.456;2023-09-07T01:22:07;23.16;45.90
67555;HTU21D;54385;53.516;49.456;2023-09-07T01:24:34;23.17;45.86
67555;HTU21D;54385;53.516;49.456;2023-09-07T01:27:04;23.17;45.86
67555;HTU21D;54385;53.516;49.456;2023-09-07T01:29:31;23.17;45.86
67555;HTU21D;54385;53.516;49.456;2023-09-07T01:31:57;23.17;45.86
67555;HTU21D;54385;53.516;49.456;2023-09-07T01:34:24;23.15;45.87
67555;HTU21D;54385;53.516;49.456;2023-09-07T01:36:50;23.15;45.90
67555;HTU21D;54385;53.516;49.456;2023-09-07T01:39:17;23.14;45.93
67555;HTU21D;54385;53.516;49.456;2023-09-07T01:41:44;23.13;45.93
67555;HTU21D;54385;53.516;49.456;2023-09-07T01:44:10;23.16;45.90
67555;HTU21D;54385;53.516;49.456;2023-09-07T01:46:37;23.16;45.88
67555;HTU21D;54385;53.516;49.456;2023-09-07T01:49:03;23.15;45.87
67555;HTU21D;54385;53.516;49.456;2023-09-07T01:51:29;23.16;45.83
67555;HTU21D;54385;53.516;49.456;2023-09-07T01:53:56;23.17;45.83
67555;HTU21D;54385;53.516;49.456;2023-09-07T01:56:22;23.16;45.82
67555;HTU21D;54385;53.516;49.456;2023-09-07T01:58:49;23.17;45.80
67555;HTU21D;54385;53.516;49.456;2023-09-07T02:01:29;23.17;45.86
67555;HTU21D;54385;53.516;49.456;2023-09-07T02:03:56;23.15;45.83
67555;HTU21D;54385;53.516;49.456;2023-09-07T02:06:23;23.15;45.84
67555;HTU21D;54385;53.516;49.456;2023-09-07T02:08:49;23.13;45.86
67555;HTU21D;54385;53.516;49.456;2023-09-07T02:11:16;23.13;45.90
67555;HTU21D;54385;53.516;49.456;2023-09-07T02:13:43;23.11;45.95
67555;HTU21D;54385;53.516;49.456;2023-09-07T02:16:10;23.07;46.02
67555;HTU21D;54385;53.516;49.456;2023-09-07T02:18:36;23.05;46.10
67555;HTU21D;54385;53.516;49.456;2023-09-07T02:21:13;23.00;46.15
67555;HTU21D;54385;53.516;49.456;2023-09-07T02:23:40;22.99;46.22
67555;HTU21D;54385;53.516;49.456;2023-09-07T02:26:10;22.96;46.28
67555;HTU21D;54385;53.516;49.456;2023-09-07T02:28:36;22.94;46.31
67555;HTU21D;54385;53.516;49.456;2023-09-07T02:31:04;22.92;46.38
67555;HTU21D;54385;53.516;49.456;2023-09-07T02:33:34;22.91;46.38
67555;HTU21D;54385;53.516;49.456;2023-09-07T02:36:01;22.91;46.40
67555;HTU21D;54385;53.516;49.456;2023-09-07T02:38:29;22.90;46.42
67555;HTU21D;54385;53.516;49.456;2023-09-07T02:40:56;22.88;46.44
67555;HTU21D;54385;53.516;49.456;2023-09-07T02:43:23;22.90;46.44
67555;HTU21D;54385;53.516;49.456;2023-09-07T02:45:50;22.88;46.64
67555;HTU21D;54385;53.516;49.456;2023-09-07T02:48:17;22.90;47.08
67555;HTU21D;54385;53.516;49.456;2023-09-07T02:50:44;22.93;47.68
67555;HTU21D;54385;53.516;49.456;2023-09-07T02:53:15;22.94;47.67
67555;HTU21D;54385;53.516;49.456;2023-09-07T02:55:42;22.95;47.76
67555;HTU21D;54385;53.516;49.456;2023-09-07T02:58:11;22.96;47.86
67555;HTU21D;54385;53.516;49.456;2023-09-07T03:00:42;22.96;48.21
67555;HTU21D;54385;53.516;49.456;2023-09-07T03:03:13;22.94;48.30
67555;HTU21D;54385;53.516;49.456;2023-09-07T03:05:41;22.95;48.26
67555;HTU21D;54385;53.516;49.456;2023-09-07T03:08:08;22.94;48.33
67555;HTU21D;54385;53.516;49.456;2023-09-07T03:10:36;22.94;48.41
67555;HTU21D;54385;53.516;49.456;2023-09-07T03:13:07;22.93;48.52
67555;HTU21D;54385;53.516;49.456;2023-09-07T03:15:34;22.92;48.57
67555;HTU21D;54385;53.516;49.456;2023-09-07T03:18:01;22.93;48.63
67555;HTU21D;54385;53.516;49.456;2023-09-07T03:20:28;22.88;48.89
67555;HTU21D;54385;53.516;49.456;2023-09-07T03:22:55;22.86;49.37
67555;HTU21D;54385;53.516;49.456;2023-09-07T03:25:22;22.83;49.73
67555;HTU21D;54385;53.516;49.456;2023-09-07T03:27:49;22.81;50.14
67555;HTU21D;54385;53.516;49.456;2023-09-07T03:30:19;22.78;50.73
67555;HTU21D;54385;53.516;49.456;2023-09-07T03:32:46;22.78;52.43
67555;HTU21D;54385;53.516;49.456;2023-09-07T03:35:14;22.76;52.75
67555;HTU21D;54385;53.516;49.456;2023-09-07T03:37:42;22.73;52.75
67555;HTU21D;54385;53.516;49.456;2023-09-07T03:40:09;22.75;52.60
67555;HTU21D;54385;53.516;49.456;2023-09-07T03:42:36;22.72;52.53
67555;HTU21D;54385;53.516;49.456;2023-09-07T03:45:07;22.71;52.46
67555;HTU21D;54385;53.516;49.456;2023-09-07T03:47:34;22.71;52.34
67555;HTU21D;54385;53.516;49.456;2023-09-07T03:50:01;22.73;52.25
67555;HTU21D;54385;53.516;49.456;2023-09-07T03:52:28;22.77;52.03
67555;HTU21D;54385;53.516;49.456;2023-09-07T03:54:56;22.78;51.83
67555;HTU21D;54385;53.516;49.456;2023-09-07T03:57:24;22.79;51.66
67555;HTU21D;54385;53.516;49.456;2023-09-07T03:59:51;22.82;51.36
67555;HTU21D;54385;53.516;49.456;2023-09-07T04:02:18;22.90;51.00
67555;HTU21D;54385;53.516;49.456;2023-09-07T04:04:50;23.00;50.51
67555;HTU21D;54385;53.516;49.456;2023-09-07T04:07:17;23.07;50.01
67555;HTU21D;54385;53.516;49.456;2023-09-07T04:09:47;23.09;49.67
67555;HTU21D;54385;53.516;49.456;2023-09-07T04:12:14;23.14;49.34
67555;HTU21D;54385;53.516;49.456;2023-09-07T04:14:40;23.17;48.92
67555;HTU21D;54385;53.516;49.456;2023-09-07T04:17:08;23.18;48.78
67555;HTU21D;54385;53.516;49.456;2023-09-07T04:19:35;23.13;48.70
67555;HTU21D;54385;53.516;49.456;2023-09-07T04:22:02;23.09;48.55
67555;HTU21D;54385;53.516;49.456;2023-09-07T04:24:28;23.06;48.47
67555;HTU21D;54385;53.516;49.456;2023-09-07T04:26:59;23.02;48.38
67555;HTU21D;54385;53.516;49.456;2023-09-07T04:29:27;23.00;48.38
67555;HTU21D;54385;53.516;49.456;2023-09-07T04:31:54;22.96;48.34
67555;HTU21D;54385;53.516;49.456;2023-09-07T04:34:21;22.92;48.37
67555;HTU21D;54385;53.516;49.456;2023-09-07T04:36:48;22.87;48.44
67555;HTU21D;54385;53.516;49.456;2023-09-07T04:39:15;22.85;48.43
67555;HTU21D;54385;53.516;49.456;2023-09-07T04:41:41;22.85;48.37
67555;HTU21D;54385;53.516;49.456;2023-09-07T04:44:08;22.85;48.31
67555;HTU21D;54385;53.516;49.456;2023-09-07T04:46:34;22.86;48.24
67555;HTU21D;54385;53.516;49.456;2023-09-07T04:49:01;22.92;48.12
67555;HTU21D;54385;53.516;49.456;2023-09-07T04:51:33;22.99;47.96
67555;HTU21D;54385;53.516;49.456;2023-09-07T04:53:59;23.07;47.72
67555;HTU21D;54385;53.516;49.456;2023-09-07T04:56:26;23.14;47.50
67555;HTU21D;54385;53.516;49.456;2023-09-07T04:58:55;23.22;47.33
67555;HTU21D;54385;53.516;49.456;2023-09-07T05:01:21;23.29;47.11
67555;HTU21D;54385;53.516;49.456;2023-09-07T05:03:48;23.34;46.96
67555;HTU21D;54385;53.516;49.456;2023-09-07T05:06:16;23.34;46.93
67555;HTU21D;54385;53.516;49.456;2023-09-07T05:08:42;23.31;46.94
67555;HTU21D;54385;53.516;49.456;2023-09-07T05:11:09;23.32;46.91
67555;HTU21D;54385;53.516;49.456;2023-09-07T05:13:36;23.32;46.89
67555;HTU21D;54385;53.516;49.456;2023-09-07T05:16:03;23.35;46.81
67555;HTU21D;54385;53.516;49.456;2023-09-07T05:18:31;23.40;46.72
67555;HTU21D;54385;53.516;49.456;2023-09-07T05:20:57;23.42;46.60
67555;HTU21D;54385;53.516;49.456;2023-09-07T05:23:24;23.51;46.41
67555;HTU21D;54385;53.516;49.456;2023-09-07T05:25:53;23.61;46.12
67555;HTU21D;54385;53.516;49.456;2023-09-07T05:28:23;23.72;45.86
67555;HTU21D;54385;53.516;49.456;2023-09-07T05:30:50;23.87;45.52
67555;HTU21D;54385;53.516;49.456;2023-09-07T05:33:20;24.05;45.13
67555;HTU21D;54385;53.516;49.456;2023-09-07T05:35:47;24.19;44.74
67555;HTU21D;54385;53.516;49.456;2023-09-07T05:38:14;24.29;44.48
67555;HTU21D;54385;53.516;49.456;2023-09-07T05:40:43;24.40;44.18
67555;HTU21D;54385;53.516;49.456;2023-09-07T05:43:11;24.47;44.01
67555;HTU21D;54385;53.516;49.456;2023-09-07T05:45:41;24.54;43.66
67555;HTU21D;54385;53.516;49.456;2023-09-07T05:48:08;24.53;43.76
67555;HTU21D;54385;53.516;49.456;2023-09-07T05:50:37;24.59;43.68
67555;HTU21D;54385;53.516;49.456;2023-09-07T05:53:04;24.75;43.27
67555;HTU21D;54385;53.516;49.456;2023-09-07T05:55:31;24.92;42.88
67555;HTU21D;54385;53.516;49.456;2023-09-07T05:57:59;25.06;42.55
67555;HTU21D;54385;53.516;49.456;2023-09-07T06:00:32;25.13;42.18
67555;HTU21D;54385;53.516;49.456;2023-09-07T06:02:59;25.14;42.27
67555;HTU21D;54385;53.516;49.456;2023-09-07T06:05:27;25.22;42.05
67555;HTU21D;54385;53.516;49.456;2023-09-07T06:07:54;25.27;41.93
67555;HTU21D;54385;53.516;49.456;2023-09-07T06:10:27;25.37;41.69
67555;HTU21D;54385;53.516;49.456;2023-09-07T06:13:05;25.49;41.26
67555;HTU21D;54385;53.516;49.456;2023-09-07T06:15:40;25.59;41.19
67555;HTU21D;54385;53.516;49.456;2023-09-07T06:18:07;25.48;41.29
67555;HTU21D;54385;53.516;49.456;2023-09-07T06:20:37;25.33;41.44
67555;HTU21D;54385;53.516;49.456;2023-09-07T06:23:06;25.29;41.56
67555;HTU21D;54385;53.516;49.456;2023-09-07T06:25:35;25.33;41.60
67555;HTU21D;54385;53.516;49.456;2023-09-07T06:28:01;25.35;41.52
67555;HTU21D;54385;53.516;49.456;2023-09-07T06:30:28;25.50;41.24
67555;HTU21D;54385;53.516;49.456;2023-09-07T06:32:54;25.50;41.11
67555;HTU21D;54385;53.516;49.456;2023-09-07T06:35:23;25.46;41.16
67555;HTU21D;54385;53.516;49.456;2023-09-07T06:37:50;25.53;41.01
67555;HTU21D;54385;53.516;49.456;2023-09-07T06:40:16;25.72;40.66
67555;HTU21D;54385;53.516;49.456;2023-09-07T06:42:44;25.76;40.48
67555;HTU21D;54385;53.516;49.456;2023-09-07T06:45:11;25.69;40.53
67555;HTU21D;54385;53.516;49.456;2023-09-07T06:47:40;25.76;40.30
67555;HTU21D;54385;53.516;49.456;2023-09-07T06:50:12;25.86;40.09
67555;HTU21D;54385;53.516;49.456;2023-09-07T06:52:39;25.98;39.94
67555;HTU21D;54385;53.516;49.456;2023-09-07T06:55:06;26.06;39.74
67555;HTU21D;54385;53.516;49.456;2023-09-07T06:57:32;26.13;39.48
67555;HTU21D;54385;53.516;49.456;2023-09-07T07:00:03;26.13;39.39
67555;HTU21D;54385;53.516;49.456;2023-09-07T07:02:39;26.12;39.23
67555;HTU21D;54385;53.516;49.456;2023-09-07T07:05:13;26.03;39.58
67555;HTU21D;54385;53.516;49.456;2023-09-07T07:07:39;26.04;39.54
67555;HTU21D;54385;53.516;49.456;2023-09-07T07:10:07;26.19;39.20
67555;HTU21D;54385;53.516;49.456;2023-09-07T07:12:37;26.22;38.93
67555;HTU21D;54385;53.516;49.456;2023-09-07T07:15:05;26.28;38.93
67555;HTU21D;54385;53.516;49.456;2023-09-07T07:17:32;26.37;38.75
67555;HTU21D;54385;53.516;49.456;2023-09-07T07:19:58;26.41;38.57
67555;HTU21D;54385;53.516;49.456;2023-09-07T07:22:25;26.49;38.46
67555;HTU21D;54385;53.516;49.456;2023-09-07T07:24:51;26.55;38.24
67555;HTU21D;54385;53.516;49.456;2023-09-07T07:27:17;26.49;38.31
67555;HTU21D;54385;53.516;49.456;2023-09-07T07:29:44;26.42;38.41
67555;HTU21D;54385;53.516;49.456;2023-09-07T07:32:11;26.38;38.49
67555;HTU21D;54385;53.516;49.456;2023-09-07T07:34:37;26.36;38.50
67555;HTU21D;54385;53.516;49.456;2023-09-07T07:37:04;26.43;38.36
67555;HTU21D;54385;53.516;49.456;2023-09-07T07:39:31;26.49;38.24
67555;HTU21D;54385;53.516;49.456;2023-09-07T07:41:57;26.42;38.28
67555;HTU21D;54385;53.516;49.456;2023-09-07T07:44:53;26.51;38.18
67555;HTU21D;54385;53.516;49.456;2023-09-07T07:47:19;26.68;37.84
67555;HTU21D;54385;53.516;49.456;2023-09-07T07:49:46;26.77;37.62
67555;HTU21D;54385;53.516;49.456;2023-09-07T07:52:12;26.66;37.75
67555;HTU21D;54385;53.516;49.456;2023-09-07T07:54:38;26.57;37.83
67555;HTU21D;54385;53.516;49.456;2023-09-07T07:57:05;26.69;37.65
67555;HTU21D;54385;53.516;49.456;2023-09-07T07:59:33;26.78;37.21
67555;HTU21D;54385;53.516;49.456;2023-09-07T08:02:03;26.73;37.35
67555;HTU21D;54385;53.516;49.456;2023-09-07T08:04:32;26.62;37.51
67555;HTU21D;54385;53.516;49.456;2023-09-07T08:06:59;26.55;37.61
67555;HTU21D;54385;53.516;49.456;2023-09-07T08:09:30;26.70;37.35
67555;HTU21D;54385;53.516;49.456;2023-09-07T08:11:57;26.77;37.15
67555;HTU21D;54385;53.516;49.456;2023-09-07T08:14:25;26.65;37.11
67555;HTU21D;54385;53.516;49.456;2023-09-07T08:16:53;26.52;37.27
67555;HTU21D;54385;53.516;49.456;2023-09-07T08:19:19;26.51;37.37
67555;HTU21D;54385;53.516;49.456;2023-09-07T08:21:46;26.53;37.30
67555;HTU21D;54385;53.516;49.456;2023-09-07T08:24:13;26.51;37.27
67555;HTU21D;54385;53.516;49.456;2023-09-07T08:26:39;26.48;37.29
67555;HTU21D;54385;53.516;49.456;2023-09-07T08:29:07;26.43;37.25
67555;HTU21D;54385;53.516;49.456;2023-09-07T08:31:35;26.36;37.32
67555;HTU21D;54385;53.516;49.456;2023-09-07T08:34:04;26.39;37.21
67555;HTU21D;54385;53.516;49.456;2023-09-07T08:36:36;26.50;37.04
67555;HTU21D;54385;53.516;49.456;2023-09-07T08:39:06;26.55;36.82
67555;HTU21D;54385;53.516;49.456;2023-09-07T08:41:43;26.48;36.68
67555;HTU21D;54385;53.516;49.456;2023-09-07T08:44:11;26.37;36.89
67555;HTU21D;54385;53.516;49.456;2023-09-07T08:46:38;26.51;36.61
67555;HTU21D;54385;53.516;49.456;2023-09-07T08:49:07;26.72;36.21
67555;HTU21D;54385;53.516;49.456;2023-09-07T08:51:38;26.73;35.85
67555;HTU21D;54385;53.516;49.456;2023-09-07T08:54:07;26.67;35.97
67555;HTU21D;54385;53.516;49.456;2023-09-07T08:56:34;26.60;36.21
67555;HTU21D;54385;53.516;49.456;2023-09-07T08:59:01;26.52;36.27
67555;HTU21D;54385;53.516;49.456;2023-09-07T09:01:29;26.41;36.43
67555;HTU21D;54385;53.516;49.456;2023-09-07T09:03:59;26.31;36.61
67555;HTU21D;54385;53.516;49.456;2023-09-07T09:06:26;26.42;36.47
67555;HTU21D;54385;53.516;49.456;2023-09-07T09:09:02;26.60;36.02
67555;HTU21D;54385;53.516;49.456;2023-09-07T09:11:31;26.78;35.91
67555;HTU21D;54385;53.516;49.456;2023-09-07T09:13:58;26.86;35.71
67555;HTU21D;54385;53.516;49.456;2023-09-07T09:16:30;26.83;35.75
67555;HTU21D;54385;53.516;49.456;2023-09-07T09:19:02;26.83;35.63
67555;HTU21D;54385;53.516;49.456;2023-09-07T09:21:32;26.94;35.59
67555;HTU21D;54385;53.516;49.456;2023-09-07T09:24:02;26.93;35.55
67555;HTU21D;54385;53.516;49.456;2023-09-07T09:26:28;26.95;35.59
67555;HTU21D;54385;53.516;49.456;2023-09-07T09:32:07;27.25;34.98
67555;HTU21D;54385;53.516;49.456;2023-09-07T09:34:35;27.40;34.73
67555;HTU21D;54385;53.516;49.456;2023-09-07T09:37:03;27.58;34.47
67555;HTU21D;54385;53.516;49.456;2023-09-07T09:39:34;27.75;34.21
67555;HTU21D;54385;53.516;49.456;2023-09-07T09:42:05;27.78;33.92
67555;HTU21D;54385;53.516;49.456;2023-09-07T09:44:34;27.76;34.09
67555;HTU21D;54385;53.516;49.456;2023-09-07T09:47:04;27.82;34.02
67555;HTU21D;54385;53.516;49.456;2023-09-07T09:49:35;27.88;33.90
67555;HTU21D;54385;53.516;49.456;2023-09-07T09:52:03;28.00;33.73
67555;HTU21D;54385;53.516;49.456;2023-09-07T09:54:35;28.24;33.26
67555;HTU21D;54385;53.516;49.456;2023-09-07T09:57:02;28.40;33.09
67555;HTU21D;54385;53.516;49.456;2023-09-07T09:59:37;28.38;32.99
67555;HTU21D;54385;53.516;49.456;2023-09-07T10:02:05;28.31;33.02
67555;HTU21D;54385;53.516;49.456;2023-09-07T10:04:35;28.35;32.91
67555;HTU21D;54385;53.516;49.456;2023-09-07T10:07:06;28.50;32.79
67555;HTU21D;54385;53.516;49.456;2023-09-07T10:09:34;28.54;32.56
67555;HTU21D;54385;53.516;49.456;2023-09-07T10:12:14;28.46;32.60
67555;HTU21D;54385;53.516;49.456;2023-09-07T10:14:44;28.37;32.80
67555;HTU21D;54385;53.516;49.456;2023-09-07T10:17:22;28.31;32.82
67555;HTU21D;54385;53.516;49.456;2023-09-07T10:20:03;28.33;32.74
67555;HTU21D;54385;53.516;49.456;2023-09-07T10:22:38;28.71;32.28
67555;HTU21D;54385;53.516;49.456;2023-09-07T10:28:23;29.27;31.10
67555;HTU21D;54385;53.516;49.456;2023-09-07T10:31:25;29.17;31.16
67555;HTU21D;54385;53.516;49.456;2023-09-07T10:33:51;29.03;31.61
67555;HTU21D;54385;53.516;49.456;2023-09-07T10:36:23;29.05;31.38
67555;HTU21D;54385;53.516;49.456;2023-09-07T10:38:51;29.31;31.26
67555;HTU21D;54385;53.516;49.456;2023-09-07T10:41:19;29.31;31.25
67555;HTU21D;54385;53.516;49.456;2023-09-07T10:43:59;29.35;31.12
67555;HTU21D;54385;53.516;49.456;2023-09-07T10:46:26;29.26;31.23
67555;HTU21D;54385;53.516;49.456;2023-09-07T10:48:58;29.16;31.35
67555;HTU21D;54385;53.516;49.456;2023-09-07T10:51:26;29.04;31.61
67555;HTU21D;54385;53.516;49.456;2023-09-07T10:53:53;28.89;31.77
67555;HTU21D;54385;53.516;49.456;2023-09-07T10:56:24;28.83;31.80
67555;HTU21D;54385;53.516;49.456;2023-09-07T10:58:54;28.74;32.10
67555;HTU21D;54385;53.516;49.456;2023-09-07T11:01:21;28.70;32.13
67555;HTU21D;54385;53.516;49.456;2023-09-07T11:03:48;28.61;32.16
67555;HTU21D;54385;53.516;49.456;2023-09-07T11:06:19;28.57;32.07
67555;HTU21D;54385;53.516;49.456;2023-09-07T11:08:47;28.69;32.11
67555;HTU21D;54385;53.516;49.456;2023-09-07T11:11:17;28.78;31.80
67555;HTU21D;54385;53.516;49.456;2023-09-07T11:13:45;28.90;31.74
67555;HTU21D;54385;53.516;49.456;2023-09-07T11:16:14;29.12;31.32
67555;HTU21D;54385;53.516;49.456;2023-09-07T11:18:45;29.32;30.90
67555;HTU21D;54385;53.516;49.456;2023-09-07T11:21:13;29.23;31.05
67555;HTU21D;54385;53.516;49.456;2023-09-07T11:23:40;29.26;30.96
67555;HTU21D;54385;53.516;49.456;2023-09-07T11:26:09;29.36;30.79
67555;HTU21D;54385;53.516;49.456;2023-09-07T11:28:37;29.42;30.61
67555;HTU21D;54385;53.516;49.456;2023-09-07T11:31:10;29.38;30.45
67555;HTU21D;54385;53.516;49.456;2023-09-07T11:33:53;29.31;30.42
67555;HTU21D;54385;53.516;49.456;2023-09-07T11:36:30;29.29;30.76
67555;HTU21D;54385;53.516;49.456;2023-09-07T11:38:56;29.31;30.67
67555;HTU21D;54385;53.516;49.456;2023-09-07T11:41:23;29.51;30.36
67555;HTU21D;54385;53.516;49.456;2023-09-07T11:43:53;29.72;29.75
67555;HTU21D;54385;53.516;49.456;2023-09-07T11:46:25;30.07;29.37
67555;HTU21D;54385;53.516;49.456;2023-09-07T11:49:14;30.51;28.58
67555;HTU21D;54385;53.516;49.456;2023-09-07T11:52:03;30.54;28.54
67555;HTU21D;54385;53.516;49.456;2023-09-07T11:54:36;30.80;28.27
67555;HTU21D;54385;53.516;49.456;2023-09-07T11:57:06;30.87;28.01
67555;HTU21D;54385;53.516;49.456;2023-09-07T11:59:33;30.60;28.32
67555;HTU21D;54385;53.516;49.456;2023-09-07T12:02:00;30.60;28.32
67555;HTU21D;54385;53.516;49.456;2023-09-07T12:04:27;30.83;28.01
67555;HTU21D;54385;53.516;49.456;2023-09-07T12:06:53;30.83;27.99
67555;HTU21D;54385;53.516;49.456;2023-09-07T12:09:22;30.72;27.85
67555;HTU21D;54385;53.516;49.456;2023-09-07T12:11:49;30.49;28.42
67555;HTU21D;54385;53.516;49.456;2023-09-07T12:14:18;30.51;28.38
67555;HTU21D;54385;53.516;49.456;2023-09-07T12:16:45;30.67;28.23
67555;HTU21D;54385;53.516;49.456;2023-09-07T12:19:12;30.83;27.81
67555;HTU21D;54385;53.516;49.456;2023-09-07T12:21:46;31.02;27.33
67555;HTU21D;54385;53.516;49.456;2023-09-07T12:24:13;31.65;26.71
67555;HTU21D;54385;53.516;49.456;2023-09-07T12:26:42;32.24;25.97
67555;HTU21D;54385;53.516;49.456;2023-09-07T12:29:22;32.87;25.03
67555;HTU21D;54385;53.516;49.456;2023-09-07T12:31:50;33.11;24.50
67555;HTU21D;54385;53.516;49.456;2023-09-07T12:34:20;33.32;24.24
67555;HTU21D;54385;53.516;49.456;2023-09-07T12:36:47;33.74;23.79
67555;HTU21D;54385;53.516;49.456;2023-09-07T12:39:15;33.48;24.16
67555;HTU21D;54385;53.516;49.456;2023-09-07T12:41:42;33.37;24.27
67555;HTU21D;54385;53.516;49.456;2023-09-07T12:44:09;33.03;24.69
67555;HTU21D;54385;53.516;49.456;2023-09-07T12:46:39;32.42;25.59
67555;HTU21D;54385;53.516;49.456;2023-09-07T12:49:06;31.88;26.26
67555;HTU21D;54385;53.516;49.456;2023-09-07T12:51:33;31.92;26.23
67555;HTU21D;54385;53.516;49.456;2023-09-07T12:53:59;32.46;25.49
67555;HTU21D;54385;53.516;49.456;2023-09-07T12:56:27;32.82;24.82
67555;HTU21D;54385;53.516;49.456;2023-09-07T12:58:57;32.87;24.80
67555;HTU21D;54385;53.516;49.456;2023-09-07T13:01:29;32.46;25.33
67555;HTU21D;54385;53.516;49.456;2023-09-07T13:03:57;32.02;25.94
67555;HTU21D;54385;53.516;49.456;2023-09-07T13:06:24;31.68;26.41
67555;HTU21D;54385;53.516;49.456;2023-09-07T13:08:54;31.37;26.81
67555;HTU21D;54385;53.516;49.456;2023-09-07T13:11:24;31.07;27.20
67555;HTU21D;54385;53.516;49.456;2023-09-07T13:13:51;30.85;27.49
67555;HTU21D;54385;53.516;49.456;2023-09-07T13:16:19;30.70;27.67
67555;HTU21D;54385;53.516;49.456;2023-09-07T13:18:46;30.42;28.07
67555;HTU21D;54385;53.516;49.456;2023-09-07T13:21:13;30.12;28.45
67555;HTU21D;54385;53.516;49.456;2023-09-07T13:23:39;30.00;28.68
67555;HTU21D;54385;53.516;49.456;2023-09-07T13:26:07;29.76;28.94
67555;HTU21D;54385;53.516;49.456;2023-09-07T13:28:37;29.36;29.58
67555;HTU21D;54385;53.516;49.456;2023-09-07T13:31:04;29.00;30.09
67555;HTU21D;54385;53.516;49.456;2023-09-07T13:33:30;28.83;30.32
67555;HTU21D;54385;53.516;49.456;2023-09-07T13:35:57;28.72;30.52
67555;HTU21D;54385;53.516;49.456;2023-09-07T13:38:23;28.53;30.83
67555;HTU21D;54385;53.516;49.456;2023-09-07T13:40:50;28.21;31.30
67555;HTU21D;54385;53.516;49.456;2023-09-07T13:43:17;27.99;31.64
67555;HTU21D;54385;53.516;49.456;2023-09-07T13:45:43;27.87;31.90
67555;HTU21D;54385;53.516;49.456;2023-09-07T13:48:10;27.88;31.91
67555;HTU21D;54385;53.516;49.456;2023-09-07T13:50:39;27.73;32.19
67555;HTU21D;54385;53.516;49.456;2023-09-07T13:53:06;27.57;32.48
67555;HTU21D;54385;53.516;49.456;2023-09-07T13:55:32;27.49;32.65
67555;HTU21D;54385;53.516;49.456;2023-09-07T13:58:00;27.42;32.76
67555;HTU21D;54385;53.516;49.456;2023-09-07T14:00:26;27.39;32.83
67555;HTU21D;54385;53.516;49.456;2023-09-07T14:02:54;27.25;33.00
67555;HTU21D;54385;53.516;49.456;2023-09-07T14:05:20;27.20;33.18
67555;HTU21D;54385;53.516;49.456;2023-09-07T14:07:47;27.14;33.31
67555;HTU21D;54385;53.516;49.456;2023-09-07T14:10:14;27.09;33.38
67555;HTU21D;54385;53.516;49.456;2023-09-07T14:12:40;26.89;33.66
67555;HTU21D;54385;53.516;49.456;2023-09-07T14:15:09;26.67;34.05
67555;HTU21D;54385;53.516;49.456;2023-09-07T14:17:35;26.39;34.50
67555;HTU21D;54385;53.516;49.456;2023-09-07T14:20:02;26.10;35.05
67555;HTU21D;54385;53.516;49.456;2023-09-07T14:22:29;25.81;35.58
67555;HTU21D;54385;53.516;49.456;2023-09-07T14:24:56;25.57;36.05
67555;HTU21D;54385;53.516;49.456;2023-09-07T14:27:23;25.43;36.34
67555;HTU21D;54385;53.516;49.456;2023-09-07T14:29:50;25.28;36.63
67555;HTU21D;54385;53.516;49.456;2023-09-07T14:32:17;25.14;36.91
67555;HTU21D;54385;53.516;49.456;2023-09-07T14:34:44;25.01;37.19
67555;HTU21D;54385;53.516;49.456;2023-09-07T14:37:11;25.07;37.09
67555;HTU21D;54385;53.516;49.456;2023-09-07T14:39:38;25.03;37.13
67555;HTU21D;54385;53.516;49.456;2023-09-07T14:42:05;24.89;37.34
67555;HTU21D;54385;53.516;49.456;2023-09-07T14:44:37;24.78;37.58
67555;HTU21D;54385;53.516;49.456;2023-09-07T14:47:04;24.66;37.84
67555;HTU21D;54385;53.516;49.456;2023-09-07T14:49:32;24.57;38.03
67555;HTU21D;54385;53.516;49.456;2023-09-07T14:51:59;24.48;38.19
67555;HTU21D;54385;53.516;49.456;2023-09-07T14:54:26;24.38;38.43
67555;HTU21D;54385;53.516;49.456;2023-09-07T14:56:53;24.29;38.60
67555;HTU21D;54385;53.516;49.456;2023-09-07T14:59:19;24.17;38.80
67555;HTU21D;54385;53.516;49.456;2023-09-07T15:01:46;24.09;38.98
67555;HTU21D;54385;53.516;49.456;2023-09-07T15:04:13;23.98;39.20
67555;HTU21D;54385;53.516;49.456;2023-09-07T15:06:40;23.90;39.38
67555;HTU21D;54385;53.516;49.456;2023-09-07T15:09:07;23.82;39.53
67555;HTU21D;54385;53.516;49.456;2023-09-07T15:11:33;23.74;39.70
67555;HTU21D;54385;53.516;49.456;2023-09-07T15:14:00;23.67;39.88
67555;HTU21D;54385;53.516;49.456;2023-09-07T15:16:29;23.60;40.05